createdAt,value
2018-09-21T07:47:22.727Z,21.90
2018-09-21T07:49:50.934Z,21.90
2018-09-21T07:52:19.110Z,21.70
2018-09-21T07:57:15.175Z,21.70
2018-09-21T07:59:43.338Z,21.70
2018-09-21T08:02:11.488Z,21.70
2018-09-21T08:04:39.643Z,21.70
2018-09-21T08:09:35.968Z,21.70
2018-09-21T08:12:04.131Z,21.70
2018-09-21T08:19:28.173Z,21.70
2018-09-21T08:21:56.301Z,21.80
2018-09-21T08:31:48.276Z,22.30
2018-09-21T08:34:16.462Z,22.20
2018-09-21T08:36:44.601Z,22.40
2018-09-21T08:39:12.914Z,22.40
2018-09-21T08:44:09.614Z,22.20
2018-09-21T08:46:37.791Z,22.20
2018-09-21T08:49:06.005Z,22.20
2018-09-21T08:51:34.175Z,22.20
2018-09-21T08:54:02.340Z,22.20
2018-09-21T08:58:58.470Z,22.20
2018-09-21T09:01:26.617Z,22.20
2018-09-21T09:03:54.773Z,22.20
2018-09-21T09:06:22.993Z,22.10
2018-09-21T09:08:51.196Z,22.10
2018-09-21T09:11:19.461Z,22.20
2018-09-21T09:16:15.543Z,22.00
2018-09-21T09:18:43.699Z,22.00
2018-09-21T09:23:39.832Z,22.10
2018-09-21T09:26:08.005Z,22.10
2018-09-21T09:31:04.068Z,20.80
2018-09-21T09:36:00.211Z,19.00
2018-09-21T09:38:28.412Z,18.00
2018-09-21T09:40:56.567Z,17.70
2018-09-21T09:43:24.825Z,17.20
2018-09-21T09:45:52.931Z,16.50
2018-09-21T09:48:21.214Z,16.00
2018-09-21T09:50:49.379Z,15.80
2018-09-21T09:58:13.391Z,15.40
2018-09-21T10:00:46.793Z,15.30
2018-09-21T10:03:14.935Z,15.20
2018-09-21T10:05:44.205Z,15.10
2018-09-21T10:08:13.414Z,15.10
2018-09-21T10:10:41.708Z,15.00
2018-09-21T10:13:10.506Z,14.70
2018-09-21T10:15:39.228Z,14.60
2018-09-21T10:18:07.651Z,14.60
2018-09-21T10:23:03.850Z,14.60
2018-09-21T10:32:56.467Z,14.70
2018-09-21T10:35:24.768Z,14.70
2018-09-21T10:37:52.932Z,14.90
2018-09-21T10:40:21.187Z,14.90
2018-09-21T10:42:49.757Z,14.90
2018-09-21T10:45:17.818Z,15.00
2018-09-21T10:47:46.104Z,15.10
2018-09-21T10:50:14.308Z,15.00
2018-09-21T10:52:42.571Z,15.10
2018-09-21T10:57:38.714Z,15.40
2018-09-21T11:00:08.018Z,15.40
2018-09-21T11:02:36.291Z,15.40
2018-09-21T11:05:04.696Z,15.40
2018-09-21T11:07:32.880Z,15.50
2018-09-21T11:10:01.440Z,15.50
2018-09-21T11:12:29.724Z,15.50
2018-09-21T11:14:58.000Z,15.60
2018-09-21T11:17:26.191Z,15.60
2018-09-21T11:19:54.691Z,15.60
2018-09-21T11:24:50.828Z,15.90
2018-09-21T11:27:19.537Z,16.10
2018-09-21T11:29:47.734Z,16.20
2018-09-21T11:32:15.900Z,16.30
2018-09-21T11:34:44.089Z,16.40
2018-09-21T11:37:12.275Z,16.30
2018-09-21T11:42:08.423Z,16.40
2018-09-21T11:44:37.296Z,16.40
2018-09-21T11:47:05.533Z,16.60
2018-09-21T11:49:33.618Z,16.90
2018-09-21T12:01:53.713Z,17.20
2018-09-21T12:04:21.927Z,17.50
2018-09-21T12:09:18.225Z,17.60
2018-09-21T12:16:42.406Z,18.20
2018-09-21T12:19:10.583Z,18.40
2018-09-21T12:24:06.828Z,18.60
2018-09-21T12:26:35.073Z,18.50
2018-09-21T12:33:59.115Z,18.60
2018-09-21T12:36:27.346Z,18.40
2018-09-21T12:46:25.148Z,17.50
2018-09-21T12:51:22.502Z,16.90
2018-09-21T12:56:18.668Z,17.00
2018-09-21T12:58:46.960Z,17.30
2018-09-21T13:03:42.916Z,17.50
2018-09-21T13:08:39.042Z,17.50
2018-09-21T13:13:35.161Z,17.60
2018-09-21T13:21:06.032Z,17.40
2018-09-21T13:23:34.265Z,17.40
2018-09-21T13:28:30.384Z,17.50
2018-09-21T13:30:58.549Z,17.30
2018-09-21T13:35:54.682Z,17.50
2018-09-21T13:38:23.044Z,17.30
2018-09-21T13:43:19.164Z,17.20
2018-09-21T13:45:47.346Z,17.30
2018-09-21T13:48:15.505Z,17.50
2018-09-21T13:50:43.687Z,17.50
2018-09-21T13:53:11.871Z,17.50
2018-09-21T14:03:03.853Z,17.20
2018-09-21T14:05:32.033Z,17.30
2018-09-21T14:10:28.294Z,17.30
2018-09-21T14:12:56.441Z,17.20
2018-09-21T14:17:52.578Z,17.40
2018-09-21T14:25:16.668Z,17.30
2018-09-21T14:27:44.969Z,17.10
2018-09-21T14:30:13.124Z,17.00
2018-09-21T14:32:41.316Z,17.20
2018-09-21T14:35:09.535Z,17.30
2018-09-21T14:40:05.747Z,17.20
2018-09-21T14:54:53.702Z,17.00
2018-09-21T14:59:50.857Z,17.30
2018-09-21T15:04:47.003Z,17.40
2018-09-21T15:07:15.208Z,17.30
2018-09-21T15:12:12.220Z,17.40
2018-09-21T15:14:40.429Z,17.40
2018-09-21T15:17:08.638Z,17.30
2018-09-21T15:19:36.784Z,17.30
2018-09-21T15:22:04.989Z,17.30
2018-09-21T15:27:01.164Z,17.30
2018-09-21T15:36:53.144Z,18.70
2018-09-21T15:39:22.167Z,20.10
2018-09-21T15:41:50.632Z,20.80
2018-09-21T15:44:18.848Z,20.70
2018-09-21T15:46:47.246Z,20.10
2018-09-21T15:51:43.408Z,19.60
2018-09-21T15:56:39.525Z,19.50
2018-09-21T15:59:07.680Z,19.60
2018-09-21T16:04:04.542Z,19.20
2018-09-21T16:06:33.258Z,19.00
2018-09-21T16:09:02.609Z,19.00
2018-09-21T16:13:58.708Z,19.60
2018-09-21T16:16:26.893Z,19.40
2018-09-21T16:21:23.392Z,20.00
2018-09-21T16:28:48.361Z,19.10
2018-09-21T16:31:16.508Z,18.60
2018-09-21T16:36:12.644Z,18.80
2018-09-21T16:38:41.191Z,18.70
2018-09-21T16:41:09.342Z,18.90
2018-09-21T16:43:37.512Z,18.30
2018-09-21T16:46:05.708Z,18.40
2018-09-21T16:48:33.917Z,18.40
2018-09-21T16:51:02.089Z,18.10
2018-09-21T16:53:30.252Z,17.60
2018-09-21T16:55:58.404Z,17.00
2018-09-21T17:00:54.519Z,16.70
2018-09-21T17:03:22.757Z,16.50
2018-09-21T17:08:18.857Z,16.40
2018-09-21T17:10:47.295Z,16.30
2018-09-21T17:13:15.442Z,16.20
2018-09-21T17:15:43.624Z,16.20
2018-09-21T17:18:11.796Z,16.20
2018-09-21T17:23:14.588Z,16.00
2018-09-21T17:25:42.827Z,16.00
2018-09-21T17:30:39.890Z,15.90
2018-09-21T17:35:35.993Z,15.80
2018-09-21T17:38:04.163Z,15.70
2018-09-21T17:40:32.326Z,15.70
2018-09-21T17:43:00.964Z,15.60
2018-09-21T17:47:57.073Z,15.50
2018-09-21T17:52:53.188Z,15.50
2018-09-21T17:55:21.385Z,15.50
2018-09-21T17:57:49.577Z,15.40
2018-09-21T18:00:17.748Z,15.30
2018-09-21T18:02:45.932Z,15.30
2018-09-21T18:05:14.088Z,15.20
2018-09-21T18:07:42.255Z,15.20
2018-09-21T18:10:10.418Z,15.10
2018-09-21T18:12:38.548Z,15.00
2018-09-21T18:15:06.757Z,15.00
2018-09-21T18:17:34.904Z,15.10
2018-09-21T18:24:58.840Z,14.90
2018-09-21T18:27:27.013Z,14.90
2018-09-21T18:29:55.164Z,15.00
2018-09-21T18:32:23.324Z,14.90
2018-09-21T18:34:51.483Z,15.00
2018-09-21T18:37:19.739Z,14.90
2018-09-21T18:39:47.864Z,14.80
2018-09-21T18:42:16.007Z,14.80
2018-09-21T18:44:44.276Z,14.80
2018-09-21T18:47:12.340Z,14.90
2018-09-21T18:49:40.483Z,15.00
2018-09-21T18:52:08.643Z,14.90
2018-09-21T18:54:36.835Z,14.90
2018-09-21T18:57:04.992Z,14.90
2018-09-21T18:59:33.153Z,14.90
2018-09-21T19:02:01.336Z,15.00
2018-09-21T19:04:29.490Z,15.00
2018-09-21T19:06:57.651Z,15.10
2018-09-21T19:09:25.832Z,15.00
2018-09-21T19:14:21.932Z,14.90
2018-09-21T19:16:50.100Z,14.90
2018-09-21T19:19:18.268Z,14.80
2018-09-21T19:24:14.376Z,14.60
2018-09-21T19:26:42.560Z,14.70
2018-09-21T19:31:38.660Z,16.10
2018-09-21T19:34:06.873Z,14.60
2018-09-21T19:39:03.000Z,14.60
2018-09-21T19:43:59.083Z,14.60
2018-09-21T19:46:27.232Z,14.60
2018-09-21T19:48:55.402Z,14.50
2018-09-21T19:51:23.555Z,14.50
2018-09-21T19:53:51.709Z,14.50
2018-09-21T19:56:19.880Z,14.50
2018-09-21T19:58:48.048Z,14.50
2018-09-21T20:03:44.109Z,14.40
2018-09-21T20:06:12.252Z,14.30
2018-09-21T20:08:40.421Z,14.40
2018-09-21T20:11:08.591Z,14.60
2018-09-21T20:13:36.782Z,14.60
2018-09-21T20:16:05.010Z,14.60
2018-09-21T20:18:33.152Z,14.60
2018-09-21T20:21:01.307Z,14.60
2018-09-21T20:25:57.395Z,14.40
2018-09-21T20:28:25.554Z,14.50
2018-09-21T20:30:59.145Z,14.40
2018-09-21T20:33:28.148Z,14.40
2018-09-21T20:35:56.930Z,14.40
2018-09-21T20:38:25.192Z,14.20
2018-09-21T20:40:53.388Z,14.30
2018-09-21T20:43:21.581Z,14.20
2018-09-21T20:45:49.900Z,14.30
2018-09-21T20:48:18.173Z,14.20
2018-09-21T20:50:46.312Z,14.20
2018-09-21T20:53:14.480Z,14.20
2018-09-21T20:55:43.001Z,14.20
2018-09-21T21:00:40.036Z,14.30
2018-09-21T21:05:36.187Z,14.30
2018-09-21T21:08:04.340Z,14.20
2018-09-21T21:10:39.280Z,14.10
2018-09-21T21:13:07.480Z,13.90
2018-09-21T21:15:35.598Z,13.90
2018-09-21T21:20:31.708Z,14.10
2018-09-21T21:22:59.916Z,14.10
2018-09-21T21:25:28.121Z,14.10
2018-09-21T21:27:56.280Z,14.00
2018-09-21T21:35:20.409Z,14.00
2018-09-21T21:37:48.570Z,13.90
2018-09-21T21:40:16.747Z,14.10
2018-09-21T21:47:40.754Z,14.10
2018-09-21T21:50:08.928Z,14.10
2018-09-21T21:52:37.101Z,14.00
2018-09-21T21:55:05.287Z,13.90
2018-09-21T21:57:33.437Z,14.00
2018-09-21T22:00:01.644Z,13.90
